Time;durP1;ratioP1;P1;durP2;ratioP2;P2;SDS_P1;SDS_P2;PMS_P1;PMS_P2;Temp;Humidity;BMP_temperature;BMP_pressure;BME280_temperature;BME280_humidity;BME280_pressure;Samples;Min_cycle;Max_cycle;Signal;HPM_P1;HPM_P2
2022/04/03 00:00:34;;;;;;;7.80;3.28;;;1.60;99.90;;;;;;4942968;29;20186;-57
2022/04/03 00:03:04;;;;;;;7.43;3.20;;;1.60;99.90;;;;;;4961441;28;20054;-58
2022/04/03 00:05:35;;;;;;;7.13;3.10;;;1.60;99.90;;;;;;4943171;29;20039;-58
2022/04/03 00:08:01;;;;;;;6.10;3.03;;;1.50;99.90;;;;;;4959913;29;20051;-58
2022/04/03 00:10:26;;;;;;;6.15;3.30;;;1.50;99.90;;;;;;4959588;29;20500;-56
2022/04/03 00:12:52;;;;;;;7.88;3.63;;;1.50;99.90;;;;;;4958998;28;20070;-58
2022/04/03 00:15:18;;;;;;;7.60;3.50;;;1.50;99.90;;;;;;4961448;29;20431;-58
2022/04/03 00:17:45;;;;;;;7.43;2.63;;;1.40;99.90;;;;;;4958347;29;20051;-57
2022/04/03 00:20:12;;;;;;;7.13;3.03;;;1.50;99.90;;;;;;4961619;28;20118;-57
2022/04/03 00:22:38;;;;;;;8.07;3.53;;;1.40;99.90;;;;;;4960369;28;20122;-57
2022/04/03 00:25:05;;;;;;;7.28;3.17;;;1.50;99.90;;;;;;4961226;28;20086;-57
2022/04/03 00:27:31;;;;;;;7.57;2.88;;;1.60;99.90;;;;;;4959486;29;20058;-57
2022/04/03 00:29:57;;;;;;;6.22;2.72;;;1.60;99.90;;;;;;4960417;28;20043;-57
2022/04/03 00:32:23;;;;;;;9.57;3.15;;;1.60;99.90;;;;;;4961036;28;20051;-57
2022/04/03 00:34:49;;;;;;;6.93;2.90;;;1.60;99.90;;;;;;4960220;29;20039;-57
2022/04/03 00:37:15;;;;;;;7.60;3.08;;;1.60;99.90;;;;;;4959793;29;20093;-56
2022/04/03 00:39:41;;;;;;;7.10;2.97;;;1.50;99.90;;;;;;4959988;28;20043;-57
2022/04/03 00:42:08;;;;;;;8.05;3.30;;;1.50;99.90;;;;;;4959530;29;20074;-58
2022/04/03 00:44:37;;;;;;;6.32;2.63;;;1.30;99.90;;;;;;4960501;28;20055;-57
2022/04/03 00:47:04;;;;;;;6.93;2.60;;;1.40;99.90;;;;;;4960161;29;20075;-57
2022/04/03 00:49:31;;;;;;;6.93;2.90;;;1.30;99.90;;;;;;4961062;28;20067;-57
2022/04/03 00:51:57;;;;;;;6.47;2.78;;;1.40;99.90;;;;;;4959930;28;20049;-56
2022/04/03 00:54:23;;;;;;;6.85;2.72;;;1.30;99.90;;;;;;4961158;28;20048;-57
2022/04/03 00:56:49;;;;;;;6.78;2.63;;;1.30;99.90;;;;;;4960073;28;20071;-58
2022/04/03 00:59:15;;;;;;;8.82;2.75;;;1.40;99.90;;;;;;4961327;28;20058;-58
2022/04/03 01:01:45;;;;;;;8.57;2.88;;;1.40;99.90;;;;;;4962686;29;20107;-58
2022/04/03 01:04:11;;;;;;;5.95;2.38;;;1.40;99.90;;;;;;4962590;29;20047;-58
2022/04/03 01:06:37;;;;;;;7.07;2.80;;;1.50;99.90;;;;;;4964940;29;20046;-57
2022/04/03 01:09:03;;;;;;;6.03;2.72;;;1.40;99.90;;;;;;4963437;28;20044;-58
2022/04/03 01:11:30;;;;;;;7.07;2.53;;;1.40;99.90;;;;;;4963663;29;20057;-57
2022/04/03 01:13:56;;;;;;;7.68;2.42;;;1.60;99.90;;;;;;4963133;28;20039;-58
2022/04/03 01:16:22;;;;;;;5.60;2.05;;;1.50;99.90;;;;;;4947184;29;20047;-57
2022/04/03 01:18:47;;;;;;;6.82;2.67;;;1.40;99.90;;;;;;4963908;29;20548;-57
2022/04/03 01:21:14;;;;;;;6.55;3.13;;;1.40;99.90;;;;;;4963815;29;20066;-57
2022/04/03 01:23:40;;;;;;;5.95;2.58;;;1.40;99.90;;;;;;4964312;28;20035;-58
2022/04/03 01:26:06;;;;;;;7.88;2.50;;;1.40;99.90;;;;;;4961778;29;20098;-57
2022/04/03 01:28:32;;;;;;;7.47;2.65;;;1.40;99.90;;;;;;4964325;28;20150;-58
2022/04/03 01:30:57;;;;;;;6.95;1.90;;;1.40;99.90;;;;;;4963193;29;20122;-58
2022/04/03 01:33:23;;;;;;;5.93;2.25;;;1.40;99.90;;;;;;4964403;29;20050;-58
2022/04/03 01:35:49;;;;;;;4.82;1.95;;;1.50;99.90;;;;;;4963241;28;20055;-58
2022/04/03 01:38:15;;;;;;;6.38;1.80;;;1.40;99.90;;;;;;4962499;29;20215;-58
2022/04/03 01:40:41;;;;;;;7.28;2.30;;;1.50;99.90;;;;;;4962406;29;20081;-57
2022/04/03 01:43:10;;;;;;;5.43;2.00;;;1.40;99.90;;;;;;4962874;28;20051;-58
2022/04/03 01:45:37;;;;;;;5.45;1.95;;;1.40;99.90;;;;;;4964330;28;20054;-57
2022/04/03 01:48:04;;;;;;;5.03;2.05;;;1.50;99.90;;;;;;4962707;28;20044;-57
2022/04/03 01:50:30;;;;;;;6.05;2.25;;;1.50;99.90;;;;;;4964139;28;20038;-57
2022/04/03 01:52:56;;;;;;;5.47;2.15;;;1.40;99.90;;;;;;4961880;29;20087;-57
2022/04/03 01:55:24;;;;;;;4.85;2.30;;;1.50;99.90;;;;;;4963417;29;20102;-58
2022/04/03 01:57:50;;;;;;;8.05;1.90;;;1.50;99.90;;;;;;4963500;29;20047;-57
2022/04/03 02:00:16;;;;;;;5.40;1.80;;;1.60;99.90;;;;;;4962635;28;20047;-56
2022/04/03 02:02:42;;;;;;;6.03;1.98;;;1.50;99.90;;;;;;4964075;29;20038;-56
2022/04/03 02:05:09;;;;;;;4.45;1.60;;;1.50;99.90;;;;;;4962542;28;20042;-57
2022/04/03 02:07:35;;;;;;;4.75;1.67;;;1.60;99.90;;;;;;4963784;28;20043;-57
2022/04/03 02:10:03;;;;;;;4.93;1.60;;;1.60;99.90;;;;;;4962811;28;20311;-58
2022/04/03 02:12:28;;;;;;;4.50;1.48;;;1.60;99.90;;;;;;4962107;28;20051;-58
2022/04/03 02:14:54;;;;;;;6.68;2.40;;;1.60;99.90;;;;;;4963322;29;20050;-57
2022/04/03 02:17:20;;;;;;;6.38;1.77;;;1.60;99.90;;;;;;4962301;28;20049;-58
2022/04/03 02:19:45;;;;;;;6.65;1.98;;;1.70;99.90;;;;;;4963695;28;20070;-57
2022/04/03 02:22:11;;;;;;;4.07;1.80;;;1.70;99.90;;;;;;4962246;29;20806;-59
2022/04/03 02:24:37;;;;;;;6.43;1.70;;;1.70;99.90;;;;;;4962085;29;20079;-57
2022/04/03 02:27:03;;;;;;;4.97;1.73;;;1.80;99.90;;;;;;4962387;29;20047;-56
2022/04/03 02:29:29;;;;;;;3.92;1.48;;;1.80;99.90;;;;;;4962887;28;20130;-57
2022/04/03 02:31:55;;;;;;;7.28;2.22;;;2.20;99.90;;;;;;4963095;29;20039;-57
2022/04/03 02:34:21;;;;;;;5.65;1.60;;;1.80;99.90;;;;;;4962279;28;20043;-58
2022/04/03 02:36:46;;;;;;;3.72;1.70;;;1.80;99.90;;;;;;4963320;28;20039;-58
2022/04/03 02:39:12;;;;;;;4.22;1.50;;;1.80;99.90;;;;;;4960358;29;20098;-58
2022/04/03 02:41:38;;;;;;;4.30;1.33;;;1.90;99.90;;;;;;4961434;29;20124;-58
2022/04/03 02:44:04;;;;;;;4.15;1.70;;;1.90;99.90;;;;;;4961889;29;20130;-57
2022/04/03 02:46:30;;;;;;;6.00;1.73;;;1.90;99.90;;;;;;4962618;28;20055;-58
2022/04/03 02:48:57;;;;;;;5.03;1.90;;;2.00;99.90;;;;;;4962598;29;20050;-57
2022/04/03 02:51:22;;;;;;;4.40;1.60;;;2.00;99.90;;;;;;4960716;29;20043;-58
2022/04/03 02:53:48;;;;;;;6.63;1.80;;;1.90;99.90;;;;;;4962734;28;20101;-58
2022/04/03 02:56:14;;;;;;;5.97;1.80;;;1.90;99.90;;;;;;4961702;28;20110;-56
2022/04/03 02:58:40;;;;;;;5.43;1.80;;;1.90;99.90;;;;;;4962907;28;20035;-58
2022/04/03 03:01:06;;;;;;;4.30;1.80;;;1.80;99.90;;;;;;4961383;29;20050;-57
2022/04/03 03:03:32;;;;;;;5.40;1.85;;;1.80;99.90;;;;;;4962561;28;20035;-58
2022/04/03 03:05:58;;;;;;;4.85;1.65;;;1.90;99.90;;;;;;4960572;29;20035;-58
2022/04/03 03:08:24;;;;;;;4.97;1.55;;;1.90;99.90;;;;;;4961657;29;20051;-58
2022/04/03 03:10:50;;;;;;;5.22;1.60;;;1.90;99.90;;;;;;4962433;29;20055;-57
2022/04/03 03:13:16;;;;;;;6.25;1.73;;;1.80;99.90;;;;;;4961058;28;20047;-57
2022/04/03 03:15:42;;;;;;;4.70;1.50;;;2.00;99.90;;;;;;4962540;29;20047;-58
2022/04/03 03:18:08;;;;;;;5.85;1.52;;;1.80;99.90;;;;;;4961285;28;20031;-58
2022/04/03 03:20:34;;;;;;;5.28;1.60;;;1.90;99.90;;;;;;4961112;29;20074;-58
2022/04/03 03:23:00;;;;;;;6.20;1.80;;;1.90;99.90;;;;;;4961341;28;20523;-58
2022/04/03 03:25:27;;;;;;;4.68;1.40;;;1.90;99.90;;;;;;4961581;29;20047;-57
2022/04/03 03:27:53;;;;;;;4.97;1.40;;;1.90;99.90;;;;;;4962055;28;20449;-58
2022/04/03 03:30:20;;;;;;;5.15;1.65;;;1.90;99.90;;;;;;4960875;29;20168;-57
2022/04/03 03:32:45;;;;;;;5.47;1.55;;;1.90;99.90;;;;;;4962485;28;20039;-58
2022/04/03 03:35:11;;;;;;;4.60;1.80;;;1.80;99.90;;;;;;4960829;29;20058;-58
2022/04/03 03:37:37;;;;;;;5.55;1.88;;;1.90;99.90;;;;;;4960532;29;20055;-58
2022/04/03 03:40:06;;;;;;;4.43;1.40;;;1.80;99.90;;;;;;4943507;29;20047;-58
2022/04/03 03:42:33;;;;;;;3.97;1.63;;;1.80;99.90;;;;;;4961110;28;20084;-58
2022/04/03 03:44:59;;;;;;;5.25;1.77;;;1.60;99.90;;;;;;4960235;28;20075;-58
2022/04/03 03:47:25;;;;;;;6.60;1.75;;;1.50;99.90;;;;;;4960605;29;20047;-57
2022/04/03 03:49:52;;;;;;;6.80;1.67;;;1.60;99.90;;;;;;4944876;29;20047;-53
2022/04/03 03:52:17;;;;;;;7.28;1.80;;;1.50;99.90;;;;;;4959091;29;20051;-57
2022/04/03 03:54:45;;;;;;;4.50;1.70;;;1.50;99.90;;;;;;4944557;29;20078;-57
2022/04/03 03:57:11;;;;;;;5.03;1.80;;;1.60;99.90;;;;;;4943550;29;20519;-57
2022/04/03 03:59:36;;;;;;;5.35;1.85;;;1.50;99.90;;;;;;4961274;29;20233;-57
2022/04/03 04:02:03;;;;;;;6.32;2.00;;;1.60;99.90;;;;;;4943980;29;20098;-58
2022/04/03 04:04:29;;;;;;;4.90;1.95;;;1.50;99.90;;;;;;4943043;29;20047;-58
2022/04/03 04:06:55;;;;;;;5.70;2.17;;;1.50;99.90;;;;;;4961668;28;20389;-57
2022/04/03 04:09:21;;;;;;;4.97;2.08;;;1.50;99.90;;;;;;4943162;29;20074;-57
2022/04/03 04:11:47;;;;;;;5.78;1.77;;;1.50;99.90;;;;;;4944078;29;20047;-57
2022/04/03 04:14:13;;;;;;;5.10;2.22;;;1.50;99.90;;;;;;4960324;29;20036;-58
2022/04/03 04:16:40;;;;;;;6.72;1.88;;;1.60;99.90;;;;;;4959500;29;20584;-58
2022/04/03 04:19:06;;;;;;;7.05;2.30;;;1.50;99.90;;;;;;4961080;28;20050;-57
2022/04/03 04:21:32;;;;;;;5.18;2.30;;;1.40;99.90;;;;;;4958622;29;20058;-57
2022/04/03 04:23:58;;;;;;;8.07;2.10;;;1.50;99.90;;;;;;4961568;28;20075;-57
2022/04/03 04:26:25;;;;;;;8.38;2.70;;;1.40;99.90;;;;;;4958557;29;20524;-58
2022/04/03 04:28:51;;;;;;;4.95;2.25;;;1.30;99.90;;;;;;4960231;29;20144;-58
2022/04/03 04:31:18;;;;;;;6.60;2.30;;;1.30;99.90;;;;;;4960139;29;20082;-57
2022/04/03 04:33:44;;;;;;;6.80;2.20;;;1.30;99.90;;;;;;4960380;28;20059;-58
2022/04/03 04:36:11;;;;;;;6.30;2.30;;;1.30;99.90;;;;;;4960887;28;20043;-58
2022/04/03 04:38:37;;;;;;;6.85;2.60;;;1.20;99.90;;;;;;4960305;28;20102;-60
2022/04/03 04:41:04;;;;;;;8.07;2.50;;;1.10;99.90;;;;;;4961054;29;20504;-59
2022/04/03 04:43:30;;;;;;;6.82;2.40;;;1.00;99.90;;;;;;4959800;28;20052;-58
2022/04/03 04:45:56;;;;;;;6.47;2.22;;;1.00;99.90;;;;;;4961238;28;20039;-57
2022/04/03 04:48:22;;;;;;;5.93;2.28;;;1.00;99.90;;;;;;4960180;29;20075;-58
2022/04/03 04:50:49;;;;;;;6.78;2.65;;;1.00;99.90;;;;;;4960446;28;20043;-57
2022/04/03 04:53:15;;;;;;;5.68;2.30;;;0.90;99.90;;;;;;4960490;29;20047;-57
2022/04/03 04:55:41;;;;;;;7.53;2.70;;;1.00;99.90;;;;;;4960166;29;20657;-57
2022/04/03 04:58:06;;;;;;;6.85;2.38;;;0.90;99.90;;;;;;4960902;29;20046;-57
2022/04/03 05:00:32;;;;;;;6.93;2.22;;;0.90;99.90;;;;;;4959778;29;20161;-57
2022/04/03 05:02:58;;;;;;;7.80;2.53;;;0.90;99.90;;;;;;4960824;28;20043;-58
2022/04/03 05:05:26;;;;;;;5.82;2.92;;;1.00;99.90;;;;;;4959695;29;20051;-57
2022/04/03 05:07:57;;;;;;;4.95;2.42;;;0.90;99.90;;;;;;4959297;29;20078;-57
2022/04/03 05:10:24;;;;;;;6.75;2.13;;;0.90;99.90;;;;;;4960487;28;20059;-57
2022/04/03 05:12:51;;;;;;;7.90;2.40;;;0.90;99.90;;;;;;4959683;28;20059;-57
2022/04/03 05:15:18;;;;;;;5.85;2.22;;;0.90;99.90;;;;;;4960943;28;20040;-57
2022/04/03 05:17:45;;;;;;;7.47;2.58;;;0.90;99.90;;;;;;4959426;28;20336;-57
2022/04/03 05:20:12;;;;;;;6.93;2.63;;;0.90;99.90;;;;;;4961021;28;20039;-57
2022/04/03 05:22:39;;;;;;;8.95;2.47;;;0.90;99.90;;;;;;4959659;28;20075;-57
2022/04/03 05:25:05;;;;;;;6.38;2.60;;;0.80;99.90;;;;;;4960634;28;20063;-57
2022/04/03 05:27:32;;;;;;;5.57;2.22;;;0.90;99.90;;;;;;4960397;28;20103;-57
2022/04/03 05:29:58;;;;;;;6.82;2.40;;;0.80;99.90;;;;;;4959709;28;20050;-57
2022/04/03 05:32:28;;;;;;;5.38;2.40;;;0.90;99.90;;;;;;4960800;28;20039;-58
2022/04/03 05:34:55;;;;;;;7.53;2.78;;;0.90;99.90;;;;;;4959474;28;20051;-57
2022/04/03 05:37:21;;;;;;;6.38;2.50;;;0.90;99.90;;;;;;4960982;28;20043;-57
2022/04/03 05:39:47;;;;;;;6.57;2.80;;;0.90;99.90;;;;;;4958328;29;20488;-56
2022/04/03 05:42:14;;;;;;;7.28;3.38;;;1.00;99.90;;;;;;4960031;28;20114;-57
2022/04/03 05:44:39;;;;;;;5.55;2.28;;;1.00;99.90;;;;;;4958739;29;20055;-57
2022/04/03 05:47:06;;;;;;;7.70;2.10;;;1.00;99.90;;;;;;4961147;28;20094;-58
2022/04/03 05:49:32;;;;;;;5.10;2.22;;;1.00;99.90;;;;;;4964128;28;20043;-57
2022/04/03 05:51:57;;;;;;;6.10;2.35;;;1.10;99.90;;;;;;4962690;29;20047;-57
2022/04/03 05:54:23;;;;;;;5.97;2.55;;;1.10;99.90;;;;;;4964037;29;20050;-57
2022/04/03 05:56:49;;;;;;;7.68;3.20;;;1.20;99.90;;;;;;4961546;29;20059;-55
2022/04/03 05:59:15;;;;;;;8.77;2.50;;;1.30;99.90;;;;;;4960777;29;20842;-57
2022/04/03 06:01:41;;;;;;;10.07;2.97;;;1.30;99.90;;;;;;4959751;28;20046;-56
2022/04/03 06:04:07;;;;;;;8.00;3.58;;;1.40;99.90;;;;;;4959070;29;20098;-58
2022/04/03 06:06:32;;;;;;;5.95;2.42;;;1.40;99.90;;;;;;4960051;29;20044;-57
2022/04/03 06:08:58;;;;;;;6.10;2.35;;;1.50;99.90;;;;;;4957348;29;20539;-57
2022/04/03 06:11:24;;;;;;;6.95;2.00;;;1.70;99.90;;;;;;4959519;28;20130;-58
2022/04/03 06:13:49;;;;;;;5.88;1.77;;;1.70;99.90;;;;;;4957380;29;20059;-57
2022/04/03 06:16:16;;;;;;;6.57;1.88;;;1.80;99.90;;;;;;4959507;28;20118;-57
2022/04/03 06:18:42;;;;;;;6.82;2.17;;;1.90;99.90;;;;;;4959246;28;20047;-57
2022/04/03 06:21:08;;;;;;;5.95;1.85;;;1.80;99.90;;;;;;4958912;28;20051;-58
2022/04/03 06:23:34;;;;;;;5.78;1.70;;;1.90;99.90;;;;;;4959216;28;20547;-58
2022/04/03 06:25:59;;;;;;;6.15;2.55;;;1.90;99.90;;;;;;4958660;28;20047;-58
2022/04/03 06:28:25;;;;;;;9.75;2.85;;;2.00;99.90;;;;;;4958329;29;20047;-57
2022/04/03 06:30:52;;;;;;;4.70;1.80;;;2.10;99.90;;;;;;4958287;28;20103;-57
2022/04/03 06:33:18;;;;;;;5.05;1.63;;;2.20;99.90;;;;;;4959605;29;20043;-57
2022/04/03 06:35:44;;;;;;;4.53;1.52;;;2.50;99.90;;;;;;4958363;29;20745;-57
2022/04/03 06:38:11;;;;;;;6.13;1.65;;;2.50;99.90;;;;;;4959011;29;20081;-57
2022/04/03 06:40:37;;;;;;;6.80;2.15;;;2.50;99.90;;;;;;4959087;28;20051;-58
2022/04/03 06:43:03;;;;;;;5.95;1.83;;;2.60;99.90;;;;;;4957926;28;20107;-57
2022/04/03 06:45:30;;;;;;;4.07;1.48;;;2.70;99.90;;;;;;4959491;29;20075;-57
2022/04/03 06:48:00;;;;;;;4.95;1.63;;;2.80;99.90;;;;;;4957367;28;20526;-57
2022/04/03 06:50:25;;;;;;;5.32;1.95;;;2.80;99.90;;;;;;4959559;29;20911;-57
2022/04/03 06:52:51;;;;;;;6.82;1.60;;;2.90;99.90;;;;;;4958477;29;20047;-57
2022/04/03 06:55:17;;;;;;;5.85;1.40;;;3.00;99.90;;;;;;4958633;28;20395;-57
2022/04/03 06:57:43;;;;;;;7.38;1.60;;;3.20;99.90;;;;;;4958426;28;20380;-57
2022/04/03 07:00:09;;;;;;;6.28;1.42;;;3.30;99.90;;;;;;4957478;29;20043;-58
2022/04/03 07:02:35;;;;;;;5.57;1.55;;;3.40;99.90;;;;;;4959097;28;20055;-57
2022/04/03 07:05:04;;;;;;;8.57;1.73;;;3.50;99.90;;;;;;4957733;28;20047;-58
2022/04/03 07:07:30;;;;;;;6.88;1.38;;;3.60;99.90;;;;;;4959127;28;20055;-57
2022/04/03 07:09:56;;;;;;;6.95;1.70;;;3.70;99.90;;;;;;4958092;28;20044;-57
2022/04/03 07:12:22;;;;;;;5.63;1.50;;;3.70;99.90;;;;;;4957640;29;20470;-57
2022/04/03 07:14:49;;;;;;;4.35;1.13;;;3.80;99.90;;;;;;4958678;28;20130;-57
2022/04/03 07:17:16;;;;;;;5.50;1.15;;;3.90;99.90;;;;;;4957104;28;20056;-58
2022/04/03 07:19:42;;;;;;;7.93;1.98;;;3.90;99.90;;;;;;4958877;28;20491;-57
2022/04/03 07:22:07;;;;;;;8.20;2.13;;;3.90;99.90;;;;;;4957280;28;20047;-58
2022/04/03 07:24:33;;;;;;;3.70;1.30;;;3.90;99.90;;;;;;4956895;29;20146;-57
2022/04/03 07:26:59;;;;;;;3.88;1.25;;;3.90;99.90;;;;;;4957698;28;20456;-57
2022/04/03 07:29:25;;;;;;;5.93;1.70;;;3.90;99.90;;;;;;4957967;29;20043;-57
2022/04/03 07:31:53;;;;;;;8.32;2.75;;;3.90;99.90;;;;;;4958048;29;20511;-58
2022/04/03 07:34:19;;;;;;;5.60;1.35;;;4.10;99.90;;;;;;4957201;28;20039;-57
2022/04/03 07:36:44;;;;;;;6.40;1.83;;;4.20;99.90;;;;;;4958313;28;20043;-57
2022/04/03 07:39:10;;;;;;;5.25;1.25;;;4.30;99.90;;;;;;4957595;29;20047;-57
2022/04/03 07:41:37;;;;;;;6.38;1.40;;;4.40;99.90;;;;;;4958285;29;20118;-57
2022/04/03 07:44:07;;;;;;;5.47;1.13;;;4.60;99.90;;;;;;4956041;29;20148;-57
2022/04/03 07:46:32;;;;;;;4.95;1.58;;;4.90;99.90;;;;;;4957487;28;20093;-57
2022/04/03 07:48:58;;;;;;;5.28;1.33;;;4.80;99.90;;;;;;4957570;28;20043;-57
2022/04/03 07:51:24;;;;;;;5.13;1.13;;;4.90;99.90;;;;;;4957158;29;20047;-58
2022/04/03 07:53:50;;;;;;;6.30;1.23;;;5.10;99.90;;;;;;4958203;29;20047;-58
2022/04/03 07:56:16;;;;;;;4.90;1.15;;;5.10;99.90;;;;;;4956798;28;20043;-57
2022/04/03 07:58:42;;;;;;;6.22;1.38;;;5.20;99.90;;;;;;4958005;29;20059;-57
2022/04/03 08:01:07;;;;;;;4.32;1.05;;;5.30;99.90;;;;;;4955205;29;20058;-57
2022/04/03 08:03:33;;;;;;;6.13;1.42;;;5.20;99.90;;;;;;4956331;29;20051;-57
2022/04/03 08:05:59;;;;;;;7.53;1.38;;;5.30;99.90;;;;;;4957562;29;20146;-57
2022/04/03 08:08:25;;;;;;;3.53;1.23;;;5.50;99.90;;;;;;4956727;28;20134;-58
2022/04/03 08:10:50;;;;;;;4.13;1.17;;;5.50;99.90;;;;;;4957243;28;20114;-57
2022/04/03 08:13:16;;;;;;;5.63;1.55;;;5.50;99.90;;;;;;4956283;29;20046;-57
2022/04/03 08:15:42;;;;;;;3.67;0.90;;;5.70;99.90;;;;;;4957816;28;20050;-57
2022/04/03 08:18:08;;;;;;;6.13;1.33;;;5.50;99.90;;;;;;4956649;29;20475;-57
2022/04/03 08:20:34;;;;;;;4.25;1.13;;;5.60;99.90;;;;;;4957748;28;20043;-57
2022/04/03 08:23:03;;;;;;;7.68;1.48;;;5.70;99.90;;;;;;4956942;29;20043;-57
2022/04/03 08:25:30;;;;;;;4.85;1.40;;;5.70;99.90;;;;;;4956496;29;20043;-57
2022/04/03 08:27:56;;;;;;;6.70;1.30;;;5.90;99.90;;;;;;4957425;28;20111;-57
2022/04/03 08:30:24;;;;;;;7.47;1.00;;;5.80;99.90;;;;;;4956452;29;20035;-57
2022/04/03 08:32:50;;;;;;;3.70;0.90;;;5.80;99.90;;;;;;4957641;28;20051;-57
2022/04/03 08:35:17;;;;;;;3.75;1.05;;;5.80;99.90;;;;;;4955864;28;20079;-57
2022/04/03 08:37:44;;;;;;;4.90;1.13;;;5.70;99.90;;;;;;4957218;28;20047;-58
2022/04/03 08:40:12;;;;;;;3.15;1.40;;;5.80;99.90;;;;;;4957048;28;20125;-57
2022/04/03 08:42:38;;;;;;;5.90;1.13;;;5.90;99.90;;;;;;4956280;28;20428;-57
2022/04/03 08:45:07;;;;;;;2.33;1.02;;;5.90;99.90;;;;;;4957514;28;20062;-57
2022/04/03 08:47:41;;;;;;;3.13;1.02;;;6.00;99.90;;;;;;4955509;28;20055;-57
2022/04/03 08:50:07;;;;;;;4.05;1.10;;;6.00;99.90;;;;;;4957474;28;20054;-58
2022/04/03 08:52:35;;;;;;;5.38;1.00;;;6.00;99.90;;;;;;4956291;28;20055;-58
2022/04/03 08:55:02;;;;;;;4.95;1.40;;;5.80;99.90;;;;;;4956805;28;20047;-58
2022/04/03 08:57:28;;;;;;;4.07;0.80;;;5.90;99.90;;;;;;4956978;28;20088;-58
2022/04/03 08:59:54;;;;;;;3.95;1.05;;;5.70;99.90;;;;;;4956027;28;20062;-58
2022/04/03 09:02:20;;;;;;;5.40;1.00;;;5.70;99.90;;;;;;4957130;28;20051;-58
2022/04/03 09:04:46;;;;;;;4.20;0.90;;;5.70;99.90;;;;;;4955766;28;20067;-58
2022/04/03 09:07:18;;;;;;;7.00;1.30;;;5.60;99.90;;;;;;4957234;28;20139;-58
2022/04/03 09:09:44;;;;;;;5.78;1.27;;;5.60;99.90;;;;;;4956123;28;20062;-57
2022/04/03 09:12:15;;;;;;;4.55;1.00;;;5.80;99.90;;;;;;4956541;29;20039;-58
2022/04/03 09:14:59;;;;;;;3.15;0.90;;;6.10;99.90;;;;;;4956841;28;20047;-57
2022/04/03 09:17:36;;;;;;;4.68;1.30;;;6.10;99.90;;;;;;4951716;29;20067;-58
2022/04/03 09:20:07;;;;;;;4.85;1.10;;;5.90;99.90;;;;;;4948521;28;20039;-57
2022/04/03 09:22:37;;;;;;;5.55;1.50;;;5.90;99.90;;;;;;4945932;29;20101;-55
2022/04/03 09:25:04;;;;;;;6.45;1.20;;;6.10;99.90;;;;;;4957583;29;20090;-57
2022/04/03 09:27:47;;;;;;;3.70;1.30;;;6.40;99.90;;;;;;4960414;29;20051;-58
2022/04/03 09:30:13;;;;;;;6.35;1.10;;;6.60;99.90;;;;;;4959394;28;20503;-57
2022/04/03 09:32:54;;;;;;;5.72;1.17;;;6.80;99.90;;;;;;4959435;29;20508;-58
2022/04/03 09:35:30;;;;;;;4.03;0.85;;;6.70;99.90;;;;;;4959281;28;20054;-58
2022/04/03 09:38:16;;;;;;;3.03;0.90;;;6.60;99.90;;;;;;4959881;28;20097;-58
2022/04/03 09:40:49;;;;;;;3.88;0.90;;;6.70;99.90;;;;;;4954654;28;20051;-58
2022/04/03 09:43:22;;;;;;;5.88;1.42;;;7.00;99.90;;;;;;4948043;28;20172;-58
2022/04/03 09:45:52;;;;;;;3.95;0.93;;;7.10;99.90;;;;;;4959314;29;20131;-57
2022/04/03 09:48:28;;;;;;;3.13;1.00;;;7.00;99.90;;;;;;4957825;28;20067;-58
2022/04/03 09:51:03;;;;;;;2.47;1.00;;;6.70;99.90;;;;;;4959697;29;20051;-58
2022/04/03 09:53:42;;;;;;;2.80;0.95;;;6.70;99.90;;;;;;4960224;29;20050;-58
2022/04/03 09:56:09;;;;;;;4.20;1.00;;;6.80;99.90;;;;;;4958997;29;20051;-58
2022/04/03 09:58:53;;;;;;;3.70;1.38;;;6.60;99.90;;;;;;4960282;29;20103;-58
2022/04/03 10:01:38;;;;;;;2.60;0.88;;;6.30;99.90;;;;;;4958956;29;20058;-58
2022/04/03 10:04:09;;;;;;;4.43;1.02;;;6.20;99.90;;;;;;4959295;29;20091;-58
2022/04/03 10:06:38;;;;;;;4.40;1.27;;;6.30;99.90;;;;;;4958578;29;20555;-58
2022/04/03 10:09:04;;;;;;;3.97;1.10;;;6.70;99.90;;;;;;4958940;28;20514;-58
2022/04/03 10:11:30;;;;;;;3.03;0.90;;;7.00;99.90;;;;;;4959719;28;20300;-58
2022/04/03 10:13:56;;;;;;;4.75;1.30;;;7.30;99.90;;;;;;4958979;28;20050;-58
2022/04/03 10:16:23;;;;;;;3.75;1.00;;;7.40;99.90;;;;;;4959542;28;20047;-58
2022/04/03 10:18:49;;;;;;;3.78;0.90;;;7.40;99.90;;;;;;4959277;28;20054;-58
2022/04/03 10:21:17;;;;;;;5.28;1.20;;;7.10;99.90;;;;;;4958583;28;20067;-58
2022/04/03 10:23:45;;;;;;;6.60;1.02;;;7.20;99.90;;;;;;4959250;28;20054;-58
2022/04/03 10:26:15;;;;;;;3.58;0.95;;;7.40;99.90;;;;;;4958495;28;20045;-58
2022/04/03 10:28:48;;;;;;;3.13;1.00;;;7.30;99.90;;;;;;4959045;28;20055;-58
2022/04/03 10:31:16;;;;;;;5.60;1.33;;;6.90;99.90;;;;;;4956225;29;20124;-57
2022/04/03 10:33:48;;;;;;;3.50;1.20;;;7.10;99.90;;;;;;4958394;28;20126;-55
2022/04/03 10:36:14;;;;;;;4.63;1.23;;;6.80;99.90;;;;;;4959208;29;20059;-58
2022/04/03 10:38:44;;;;;;;4.97;1.20;;;7.20;99.90;;;;;;4958138;29;20558;-57
2022/04/03 10:41:45;;;;;;;3.22;0.90;;;7.20;99.90;;;;;;4959518;28;20051;-58
2022/04/03 10:44:13;;;;;;;3.15;1.00;;;7.30;99.90;;;;;;4879918;29;20057;-58
2022/04/03 10:47:01;;;;;;;4.13;1.10;;;7.00;99.90;;;;;;4943703;28;20106;-58
2022/04/03 10:49:57;;;;;;;2.83;0.90;;;7.00;99.90;;;;;;4958956;29;20078;-58
2022/04/03 10:52:38;;;;;;;3.53;1.02;;;6.80;99.90;;;;;;4958100;29;20054;-58
2022/04/03 10:55:22;;;;;;;4.60;0.90;;;6.70;99.90;;;;;;4958504;28;20153;-58
2022/04/03 10:57:59;;;;;;;2.17;0.98;;;6.50;99.90;;;;;;4959135;28;20047;-58
2022/04/03 11:00:25;;;;;;;5.68;0.95;;;6.60;99.90;;;;;;4957695;28;20540;-58
2022/04/03 11:02:57;;;;;;;3.63;0.90;;;6.60;99.90;;;;;;4959286;29;20390;-58
2022/04/03 11:05:23;;;;;;;5.88;1.42;;;6.60;99.90;;;;;;4959928;29;20063;-58
2022/04/03 11:07:50;;;;;;;2.65;1.02;;;6.50;99.90;;;;;;4962214;29;20087;-58
2022/04/03 11:10:36;;;;;;;2.50;1.10;;;6.40;99.90;;;;;;4960749;29;20519;-58
2022/04/03 11:13:01;;;;;;;4.30;1.30;;;6.30;99.90;;;;;;4961199;29;20043;-58
2022/04/03 11:16:02;;;;;;;3.75;1.13;;;6.40;99.90;;;;;;4962704;29;20043;-58
2022/04/03 11:18:50;;;;;;;5.15;1.52;;;6.40;99.90;;;;;;4940320;29;20059;-57
2022/04/03 11:21:31;;;;;;;5.47;1.30;;;6.40;99.90;;;;;;4961095;28;20944;-58
2022/04/03 11:24:14;;;;;;;4.80;1.20;;;6.40;99.90;;;;;;4961038;29;20032;-58
2022/04/03 11:26:41;;;;;;;4.07;1.00;;;6.40;99.90;;;;;;4961271;29;20043;-58
2022/04/03 11:29:09;;;;;;;5.15;1.10;;;6.30;99.90;;;;;;4960723;29;20087;-58
2022/04/03 11:31:36;;;;;;;3.60;1.00;;;6.20;99.90;;;;;;4961933;28;20043;-58
2022/04/03 11:34:02;;;;;;;1.30;0.70;;;6.10;99.90;;;;;;4961176;28;20040;-56
2022/04/03 11:36:31;;;;;;;1.88;0.80;;;5.90;99.90;;;;;;4962269;28;20093;-57
2022/04/03 11:39:00;;;;;;;2.90;1.00;;;5.90;99.90;;;;;;4960585;29;20095;-58
2022/04/03 11:41:35;;;;;;;1.60;0.70;;;6.30;99.90;;;;;;4962114;28;20058;-58
2022/04/03 11:44:07;;;;;;;3.17;0.85;;;6.60;99.90;;;;;;4960884;28;20062;-58
2022/04/03 11:46:41;;;;;;;2.75;1.02;;;6.70;99.90;;;;;;4960968;28;20046;-58
2022/04/03 11:49:15;;;;;;;4.65;1.13;;;7.00;99.90;;;;;;4961657;28;20395;-58
2022/04/03 11:51:41;;;;;;;4.45;1.20;;;7.20;99.90;;;;;;4960906;28;20036;-58
2022/04/03 11:54:07;;;;;;;4.05;1.20;;;7.00;99.90;;;;;;4961716;28;20492;-58
2022/04/03 11:56:36;;;;;;;5.60;1.35;;;7.20;99.90;;;;;;4960305;29;20074;-57
2022/04/03 11:59:04;;;;;;;4.82;1.20;;;7.10;99.90;;;;;;4961631;28;20047;-57
2022/04/03 12:01:41;;;;;;;4.30;0.90;;;6.70;99.90;;;;;;4960941;28;20567;-58
2022/04/03 12:04:14;;;;;;;2.42;1.00;;;6.80;99.90;;;;;;4958880;28;20504;-58
2022/04/03 12:06:42;;;;;;;6.82;1.70;;;6.80;99.90;;;;;;4961571;28;20043;-56
2022/04/03 12:09:13;;;;;;;8.93;1.60;;;7.10;99.90;;;;;;4960346;28;20051;-59
2022/04/03 12:11:51;;;;;;;4.30;1.30;;;7.70;99.90;;;;;;4961867;28;20049;-58
2022/04/03 12:14:26;;;;;;;5.15;1.30;;;7.70;99.90;;;;;;4960821;28;20480;-58
2022/04/03 12:17:06;;;;;;;3.90;1.00;;;7.80;99.90;;;;;;4960260;28;20043;-57
2022/04/03 12:19:37;;;;;;;3.72;1.00;;;7.50;99.90;;;;;;4961337;28;20047;-58
2022/04/03 12:22:04;;;;;;;4.68;0.90;;;7.20;99.90;;;;;;4959434;28;20051;-57
2022/04/03 12:24:34;;;;;;;6.00;1.40;;;7.10;99.90;;;;;;4959778;29;20046;-58
2022/04/03 12:27:01;;;;;;;4.35;1.17;;;7.00;99.90;;;;;;4950603;29;20048;-58
2022/04/03 12:29:30;;;;;;;4.57;0.90;;;6.90;99.90;;;;;;4947916;29;20058;-58
2022/04/03 12:32:07;;;;;;;3.88;0.98;;;7.30;99.90;;;;;;4949683;29;20043;-57
2022/04/03 12:34:39;;;;;;;3.97;1.10;;;7.10;99.90;;;;;;4958058;29;20043;-58
2022/04/03 12:37:06;;;;;;;6.43;1.52;;;6.90;99.90;;;;;;4961197;29;20131;-59
2022/04/03 12:39:34;;;;;;;3.35;0.90;;;6.70;99.90;;;;;;4959853;29;20047;-57
2022/04/03 12:42:33;;;;;;;2.80;1.00;;;6.60;99.90;;;;;;4960478;29;20058;-57
2022/04/03 12:45:16;;;;;;;3.97;0.90;;;6.60;99.90;;;;;;4960831;29;20130;-58
2022/04/03 12:47:58;;;;;;;5.38;1.13;;;6.60;99.90;;;;;;4959348;29;20061;-58
2022/04/03 12:50:30;;;;;;;5.10;1.48;;;6.50;99.90;;;;;;4960900;29;20238;-58
2022/04/03 12:53:01;;;;;;;2.80;1.02;;;6.80;99.90;;;;;;4960289;29;20070;-58
2022/04/03 12:55:33;;;;;;;7.38;1.30;;;7.10;99.90;;;;;;4960689;28;20043;-58
2022/04/03 13:01:12;;;;;;;4.18;1.10;;;7.10;99.90;;;;;;4947584;28;20530;-58
2022/04/03 13:03:45;;;;;;;5.78;1.20;;;7.70;99.90;;;;;;4946884;29;20040;-58
2022/04/03 13:06:15;;;;;;;3.40;0.90;;;8.00;99.90;;;;;;4964471;28;20082;-57